createdAt,value
2017-03-09T00:01:58.879Z,6.9
2017-03-09T00:12:13.338Z,6.4
2017-03-09T00:22:27.765Z,6.6
2017-03-09T00:32:42.618Z,6.8
2017-03-09T00:42:56.889Z,6.7
2017-03-09T00:53:10.197Z,6.6
2017-03-09T01:03:24.868Z,6.6
2017-03-09T01:13:39.476Z,6.3
2017-03-09T01:23:53.552Z,6.4
2017-03-09T01:34:08.675Z,6.1
2017-03-09T01:44:21.872Z,5.4
2017-03-09T01:54:35.183Z,5.3
2017-03-09T02:04:48.508Z,4.9
2017-03-09T02:15:02.548Z,4.8
2017-03-09T02:25:16.300Z,4.9
2017-03-09T02:35:31.058Z,5.1
2017-03-09T02:45:45.146Z,5.2
2017-03-09T02:55:58.452Z,5.3
2017-03-09T03:06:11.995Z,5.4
2017-03-09T03:16:25.741Z,5.3
2017-03-09T03:26:46.060Z,5.2
2017-03-09T03:36:54.077Z,5.3
2017-03-09T03:47:08.760Z,5.4
2017-03-09T03:57:22.206Z,5.2
2017-03-09T04:07:35.628Z,5.1
2017-03-09T04:17:55.047Z,5.2
2017-03-09T04:28:04.181Z,5.2
2017-03-09T04:38:24.763Z,5.4
2017-03-09T04:48:31.324Z,5.7
2017-03-09T04:58:45.561Z,5.6
2017-03-09T05:08:59.993Z,5.4
2017-03-09T05:19:14.608Z,5.2
2017-03-09T05:29:30.021Z,4.8
2017-03-09T05:39:42.389Z,4.8
2017-03-09T05:49:57.229Z,4.6
2017-03-09T06:00:11.446Z,4.4
2017-03-09T06:10:26.253Z,4.4
2017-03-09T06:20:41.190Z,4.8
2017-03-09T06:30:55.088Z,4.7
2017-03-09T06:41:08.943Z,4.9
2017-03-09T06:51:22.865Z,5
2017-03-09T07:01:36.916Z,5.1
2017-03-09T07:11:50.812Z,5.2
2017-03-09T07:22:04.955Z,5.3
2017-03-09T07:32:19.559Z,5.4
2017-03-09T07:42:33.551Z,5.6
2017-03-09T07:52:48.471Z,5.7
2017-03-09T08:03:07.931Z,5.9
2017-03-09T08:13:17.359Z,6.1
2017-03-09T08:23:31.459Z,6.6
2017-03-09T08:33:46.330Z,7.9
2017-03-09T08:44:02.505Z,8.4
2017-03-09T08:54:14.499Z,8.3
2017-03-09T09:04:28.007Z,8.3
2017-03-09T09:14:41.843Z,8.5
2017-03-09T09:24:56.335Z,8.8
2017-03-09T09:35:10.560Z,9.2
2017-03-09T09:45:25.815Z,9.5
2017-03-09T09:55:40.418Z,9.4
2017-03-09T10:05:53.851Z,9.6
2017-03-09T10:16:10.780Z,9.7
2017-03-09T10:26:21.689Z,9.4
2017-03-09T10:36:36.775Z,9.1
2017-03-09T10:46:58.721Z,9
2017-03-09T10:57:05.899Z,9.2
2017-03-09T11:07:20.971Z,9.2
2017-03-09T11:18:25.309Z,9.1
2017-03-09T11:27:49.496Z,9.2
2017-03-09T11:38:03.576Z,9.4
2017-03-09T11:48:18.487Z,9.3
2017-03-09T11:58:32.995Z,9.4
2017-03-09T12:08:52.605Z,9.7
2017-03-09T12:19:02.192Z,9.9
2017-03-09T12:29:21.793Z,10.3
2017-03-09T12:39:31.375Z,10.3
2017-03-09T12:49:45.978Z,10.5
2017-03-09T13:00:00.874Z,10.9
2017-03-09T13:10:14.484Z,10.9
2017-03-09T13:20:28.729Z,10.9
2017-03-09T13:30:42.301Z,11
2017-03-09T13:41:02.002Z,11.1
2017-03-09T13:51:20.128Z,11.2
2017-03-09T14:01:26.082Z,11.4
2017-03-09T14:11:40.406Z,11.5
2017-03-09T14:21:53.898Z,11.4
2017-03-09T14:32:08.246Z,11.3
2017-03-09T14:42:22.533Z,11.2
2017-03-09T15:02:51.350Z,11.2
2017-03-09T15:13:06.130Z,11.1
2017-03-09T15:23:21.196Z,11.2
2017-03-09T15:33:35.469Z,11.5
2017-03-09T15:43:50.571Z,11.5
2017-03-09T15:54:04.933Z,11.7
2017-03-09T16:04:19.691Z,11.8
2017-03-09T16:14:33.031Z,11.3
2017-03-09T16:24:47.391Z,10.7
2017-03-09T16:35:02.653Z,10.2
2017-03-09T16:45:16.334Z,10.1
2017-03-09T16:55:30.975Z,9.9
2017-03-09T17:05:45.932Z,9.4
2017-03-09T17:16:00.450Z,9.3
2017-03-09T17:26:14.530Z,9
2017-03-09T17:36:29.389Z,9
2017-03-09T17:46:44.251Z,8.6
2017-03-09T17:56:57.684Z,8.6
2017-03-09T18:07:11.007Z,8.9
2017-03-09T18:17:24.148Z,9.1
2017-03-09T18:27:38.281Z,9
2017-03-09T18:37:51.496Z,9
2017-03-09T18:48:05.849Z,8.8
2017-03-09T18:58:19.863Z,8.9
2017-03-09T19:08:33.983Z,8.9
2017-03-09T19:18:47.856Z,8.7
2017-03-09T19:29:02.881Z,8.7
2017-03-09T19:39:16.545Z,8.7
2017-03-09T19:49:29.930Z,8.6
2017-03-09T19:59:44.297Z,8.3
2017-03-09T20:09:59.091Z,8.3
2017-03-09T20:20:12.916Z,8.3
2017-03-09T20:30:26.410Z,8.2
2017-03-09T20:40:39.620Z,7.9
2017-03-09T20:50:54.596Z,7.9
2017-03-09T21:01:15.496Z,7.6
2017-03-09T21:11:40.349Z,7.6
2017-03-09T21:21:36.033Z,7.6
2017-03-09T21:31:50.081Z,7.5
2017-03-09T21:42:03.283Z,7.5
2017-03-09T21:52:17.699Z,7.5
2017-03-09T22:02:31.047Z,7.1
2017-03-09T22:12:45.780Z,7.3
2017-03-09T22:22:58.944Z,7.3
2017-03-09T22:33:12.018Z,7.2
2017-03-09T22:43:26.732Z,7.2
2017-03-09T22:53:42.138Z,7.2
2017-03-09T23:03:53.866Z,7.2
2017-03-09T23:14:07.828Z,7.1
2017-03-09T23:24:21.340Z,7
2017-03-09T23:34:34.619Z,6.9
2017-03-09T23:44:49.145Z,6.7
2017-03-09T23:55:02.905Z,6.6
